createdAt,value
2023-05-11T00:01:52.617Z,7.60
2023-05-11T00:04:21.957Z,7.53
2023-05-11T00:06:51.301Z,7.57
2023-05-11T00:09:21.937Z,7.69
2023-05-11T00:11:52.688Z,7.63
2023-05-11T00:14:21.983Z,7.77
2023-05-11T00:16:51.076Z,7.82
2023-05-11T00:19:20.268Z,7.99
2023-05-11T00:21:49.402Z,8.34
2023-05-11T00:24:18.506Z,8.15
2023-05-11T00:26:48.980Z,8.21
2023-05-11T00:29:18.201Z,8.35
2023-05-11T00:31:48.289Z,8.26
2023-05-11T00:34:17.972Z,8.32
2023-05-11T00:36:46.960Z,8.20
2023-05-11T00:39:18.477Z,8.25
2023-05-11T00:41:48.944Z,8.17
2023-05-11T00:44:18.099Z,8.15
2023-05-11T00:46:48.012Z,8.26
2023-05-11T00:49:21.385Z,8.22
2023-05-11T00:51:50.598Z,8.42
2023-05-11T00:54:19.660Z,8.60
2023-05-11T00:56:50.291Z,8.60
2023-05-11T00:59:20.138Z,8.62
2023-05-11T01:01:49.265Z,8.50
2023-05-11T01:04:18.270Z,8.58
2023-05-11T01:06:56.398Z,8.68
2023-05-11T01:09:35.508Z,8.64
2023-05-11T01:12:15.685Z,8.53
2023-05-11T01:14:56.062Z,8.84
2023-05-11T01:17:38.104Z,8.74
2023-05-11T01:20:12.939Z,8.79
2023-05-11T01:23:10.177Z,8.70
2023-05-11T01:26:10.288Z,8.83
2023-05-11T01:29:01.543Z,8.73
2023-05-11T01:31:35.061Z,8.63
2023-05-11T01:34:11.116Z,8.75
2023-05-11T01:36:45.632Z,8.30
2023-05-11T01:39:18.838Z,8.62
2023-05-11T01:41:53.018Z,8.70
2023-05-11T01:44:25.863Z,8.75
2023-05-11T01:46:57.531Z,8.88
2023-05-11T01:49:26.809Z,8.70
2023-05-11T01:51:57.302Z,8.73
2023-05-11T01:54:28.897Z,8.74
2023-05-11T01:56:59.745Z,8.69
2023-05-11T01:59:31.041Z,8.69
2023-05-11T02:02:10.834Z,8.50
2023-05-11T02:04:41.455Z,8.49
2023-05-11T02:07:13.009Z,8.36
2023-05-11T02:09:43.279Z,8.29
2023-05-11T02:12:14.429Z,8.46
2023-05-11T02:14:45.460Z,8.25
2023-05-11T02:17:20.782Z,8.28
2023-05-11T02:19:52.759Z,8.27
2023-05-11T02:22:24.497Z,8.00
2023-05-11T02:24:53.591Z,8.00
2023-05-11T02:27:22.720Z,8.17
2023-05-11T02:29:52.205Z,8.26
2023-05-11T02:32:25.839Z,8.30
2023-05-11T02:35:01.935Z,8.02
2023-05-11T02:37:34.877Z,7.87
2023-05-11T02:40:12.107Z,7.99
2023-05-11T02:42:44.166Z,7.94
2023-05-11T02:45:15.774Z,7.91
2023-05-11T02:47:49.317Z,8.30
2023-05-11T02:50:25.620Z,8.28
2023-05-11T02:53:00.105Z,8.19
2023-05-11T02:55:30.482Z,8.08
2023-05-11T02:58:00.140Z,8.00
2023-05-11T03:00:30.389Z,8.17
2023-05-11T03:03:01.067Z,8.51
2023-05-11T03:05:30.138Z,8.84
2023-05-11T03:08:01.796Z,9.01
2023-05-11T03:10:31.582Z,9.26
2023-05-11T03:13:01.646Z,9.33
2023-05-11T03:15:31.513Z,9.76
2023-05-11T03:18:08.008Z,9.92
2023-05-11T03:20:40.400Z,10.05
2023-05-11T03:23:10.934Z,10.19
2023-05-11T03:25:42.555Z,10.17
2023-05-11T03:28:14.862Z,10.30
2023-05-11T03:30:54.492Z,10.37
2023-05-11T03:33:25.509Z,10.19
2023-05-11T03:35:55.539Z,10.26
2023-05-11T03:38:30.161Z,10.06
2023-05-11T03:41:01.462Z,9.79
2023-05-11T03:43:37.474Z,9.93
2023-05-11T03:46:07.892Z,9.63
2023-05-11T03:48:40.205Z,9.78
2023-05-11T03:51:11.342Z,9.64
2023-05-11T03:53:40.712Z,9.70
2023-05-11T03:56:10.092Z,9.48
2023-05-11T03:58:40.507Z,9.74
2023-05-11T04:01:10.328Z,9.38
2023-05-11T04:03:50.768Z,9.67
2023-05-11T04:06:21.020Z,9.67
2023-05-11T04:08:57.398Z,9.79
2023-05-11T04:11:27.604Z,9.83
2023-05-11T04:13:57.124Z,9.92
2023-05-11T04:16:26.294Z,9.99
2023-05-11T04:18:57.143Z,10.46
2023-05-11T04:21:26.320Z,10.63
2023-05-11T04:23:55.644Z,10.95
2023-05-11T04:26:24.844Z,11.20
2023-05-11T04:28:54.089Z,11.26
2023-05-11T04:31:23.465Z,11.72
2023-05-11T04:33:52.636Z,11.71
2023-05-11T04:36:25.494Z,11.92
2023-05-11T04:38:55.169Z,12.21
2023-05-11T04:41:24.422Z,11.95
2023-05-11T04:43:54.362Z,12.25
2023-05-11T04:46:23.902Z,12.30
2023-05-11T04:48:55.199Z,12.42
2023-05-11T04:51:25.849Z,12.30
2023-05-11T04:53:55.100Z,12.83
2023-05-11T04:56:24.572Z,12.64
2023-05-11T04:58:53.786Z,13.04
2023-05-11T05:01:23.422Z,12.98
2023-05-11T05:03:52.544Z,12.96
2023-05-11T05:06:21.590Z,12.86
2023-05-11T05:08:52.132Z,13.38
2023-05-11T05:11:22.392Z,13.59
2023-05-11T05:13:51.820Z,13.47
2023-05-11T05:16:21.796Z,13.84
2023-05-11T05:18:51.295Z,13.84
2023-05-11T05:21:20.612Z,13.66
2023-05-11T05:23:52.342Z,13.83
2023-05-11T05:26:21.791Z,14.14
2023-05-11T05:28:52.470Z,13.92
2023-05-11T05:31:22.849Z,14.07
2023-05-11T05:33:52.336Z,14.37
2023-05-11T05:36:21.787Z,13.64
2023-05-11T05:38:52.516Z,14.49
2023-05-11T05:41:23.243Z,14.65
2023-05-11T05:43:54.082Z,14.38
2023-05-11T05:46:23.740Z,15.00
2023-05-11T05:48:52.928Z,15.41
2023-05-11T05:51:22.638Z,15.20
2023-05-11T05:53:53.276Z,15.22
2023-05-11T05:56:23.433Z,15.23
2023-05-11T05:58:52.824Z,14.58
2023-05-11T06:01:22.379Z,14.42
2023-05-11T06:03:52.887Z,14.72
2023-05-11T06:06:21.959Z,14.49
2023-05-11T06:08:53.472Z,14.86
2023-05-11T06:11:23.545Z,14.86
2023-05-11T06:13:54.284Z,14.58
2023-05-11T06:16:25.329Z,14.56
2023-05-11T06:18:57.097Z,14.73
2023-05-11T06:21:26.485Z,14.65
2023-05-11T06:23:57.147Z,15.21
2023-05-11T06:26:29.061Z,15.13
2023-05-11T06:28:58.349Z,15.49
2023-05-11T06:31:27.966Z,15.17
2023-05-11T06:33:57.370Z,15.31
2023-05-11T06:36:30.384Z,15.35
2023-05-11T06:39:01.159Z,15.07
2023-05-11T06:41:30.385Z,15.21
2023-05-11T06:44:00.791Z,15.30
2023-05-11T06:46:38.417Z,15.28
2023-05-11T06:49:12.449Z,14.99
2023-05-11T06:51:42.795Z,14.87
2023-05-11T06:54:13.244Z,14.42
2023-05-11T06:56:45.712Z,14.07
2023-05-11T06:59:14.846Z,14.77
2023-05-11T07:01:44.257Z,15.14
2023-05-11T07:04:13.523Z,15.37
2023-05-11T07:06:42.502Z,15.09
2023-05-11T07:09:13.126Z,15.18
2023-05-11T07:11:42.729Z,15.89
2023-05-11T07:14:12.554Z,15.79
2023-05-11T07:16:42.264Z,15.50
2023-05-11T07:19:11.494Z,15.85
2023-05-11T07:21:40.658Z,16.56
2023-05-11T07:24:09.803Z,16.31
2023-05-11T07:26:40.134Z,16.52
2023-05-11T07:29:14.845Z,16.77
2023-05-11T07:31:44.222Z,16.98
2023-05-11T07:34:13.233Z,16.45
2023-05-11T07:36:42.243Z,16.28
2023-05-11T07:39:11.933Z,16.10
2023-05-11T07:41:42.372Z,16.71
2023-05-11T07:44:11.838Z,16.05
2023-05-11T07:46:54.274Z,16.35
2023-05-11T07:49:31.369Z,16.35
2023-05-11T07:52:09.776Z,16.92
2023-05-11T07:54:40.290Z,16.95
2023-05-11T07:57:14.499Z,17.35
2023-05-11T07:59:43.990Z,17.47
2023-05-11T08:02:13.556Z,17.05
2023-05-11T08:04:43.259Z,17.19
2023-05-11T08:07:12.485Z,16.91
2023-05-11T08:09:41.564Z,17.00
2023-05-11T08:12:11.986Z,16.79
2023-05-11T08:14:43.347Z,17.18
2023-05-11T08:17:12.427Z,17.78
2023-05-11T08:19:41.545Z,17.72
2023-05-11T08:22:10.830Z,17.29
2023-05-11T08:24:39.934Z,17.96
2023-05-11T08:27:09.357Z,17.61
2023-05-11T08:29:43.122Z,18.27
2023-05-11T08:32:12.898Z,18.01
2023-05-11T08:34:42.074Z,18.14
2023-05-11T08:37:14.132Z,19.16
2023-05-11T08:39:47.727Z,18.48
2023-05-11T08:42:19.954Z,18.23
2023-05-11T08:44:51.618Z,18.34
2023-05-11T08:47:23.778Z,19.07
2023-05-11T08:49:53.639Z,19.18
2023-05-11T08:52:26.537Z,18.99
2023-05-11T08:54:55.517Z,19.63
2023-05-11T08:57:25.303Z,19.21
2023-05-11T08:59:56.096Z,19.69
2023-05-11T09:02:26.601Z,19.85
2023-05-11T09:04:56.357Z,19.71
2023-05-11T09:07:28.248Z,19.83
2023-05-11T09:09:58.093Z,20.78
2023-05-11T09:12:28.562Z,20.49
2023-05-11T09:15:02.154Z,21.00
2023-05-11T09:17:31.457Z,20.45
2023-05-11T09:20:05.268Z,20.61
2023-05-11T09:22:36.624Z,21.31
2023-05-11T09:25:07.140Z,21.26
2023-05-11T09:27:36.289Z,21.50
2023-05-11T09:30:22.098Z,22.16
2023-05-11T09:32:53.774Z,22.37
2023-05-11T09:35:24.566Z,22.24
2023-05-11T09:38:05.258Z,21.73
2023-05-11T09:40:36.277Z,21.19
2023-05-11T09:43:18.119Z,21.40
2023-05-11T09:45:50.981Z,20.77
2023-05-11T09:48:28.737Z,21.00
2023-05-11T09:51:03.830Z,21.01
2023-05-11T09:53:37.754Z,19.52
2023-05-11T09:56:07.589Z,19.74
2023-05-11T09:58:53.027Z,20.17
2023-05-11T10:01:32.494Z,20.23
2023-05-11T10:04:21.367Z,19.45
2023-05-11T10:06:53.298Z,19.32
2023-05-11T10:09:27.643Z,19.38
2023-05-11T10:12:07.628Z,19.86
2023-05-11T10:14:37.040Z,23.12
2023-05-11T10:17:07.996Z,24.24
2023-05-11T10:19:37.057Z,23.83
2023-05-11T10:22:08.616Z,24.72
2023-05-11T10:24:38.667Z,23.16
2023-05-11T10:27:08.856Z,20.17
2023-05-11T10:29:38.927Z,23.10
2023-05-11T10:32:11.829Z,26.40
2023-05-11T10:35:09.820Z,27.13
2023-05-11T10:37:39.164Z,26.64
2023-05-11T10:40:09.812Z,29.86
2023-05-11T10:43:17.238Z,31.82
2023-05-11T10:45:53.456Z,31.49
2023-05-11T10:48:43.675Z,30.43
2023-05-11T10:51:27.649Z,29.89
2023-05-11T10:54:11.507Z,29.14
2023-05-11T10:56:58.281Z,24.73
2023-05-11T11:00:13.809Z,26.06
2023-05-11T11:02:45.472Z,27.69
2023-05-11T11:05:33.476Z,25.94
2023-05-11T11:08:04.831Z,24.14
2023-05-11T11:10:35.876Z,22.81
2023-05-11T11:13:07.344Z,24.83
2023-05-11T11:16:11.232Z,26.06
2023-05-11T11:18:40.924Z,28.81
2023-05-11T11:21:15.660Z,33.26
2023-05-11T11:23:50.552Z,32.67
2023-05-11T11:26:59.254Z,32.17
2023-05-11T11:29:29.296Z,32.99
2023-05-11T11:32:30.430Z,32.32
2023-05-11T11:35:01.661Z,32.61
2023-05-11T11:37:30.950Z,32.53
2023-05-11T11:40:14.070Z,32.86
2023-05-11T11:42:50.624Z,35.87
2023-05-11T11:45:35.267Z,34.01
2023-05-11T11:48:16.175Z,26.40
2023-05-11T11:50:48.188Z,25.18
2023-05-11T11:54:07.497Z,27.34
2023-05-11T11:56:44.996Z,28.91
2023-05-11T11:59:16.603Z,31.23
2023-05-11T12:01:47.118Z,34.67
2023-05-11T12:04:39.497Z,29.44
2023-05-11T12:07:11.495Z,33.61
2023-05-11T12:09:42.152Z,31.48
2023-05-11T12:12:14.009Z,33.32
2023-05-11T12:14:51.330Z,35.24
2023-05-11T12:17:30.904Z,36.24
2023-05-11T12:20:14.396Z,36.41
2023-05-11T12:22:44.552Z,34.73
2023-05-11T12:25:15.940Z,32.94
2023-05-11T12:27:55.687Z,25.33
2023-05-11T12:30:27.629Z,25.85
2023-05-11T12:32:58.086Z,25.70
2023-05-11T12:35:29.173Z,25.51
2023-05-11T12:38:06.015Z,24.80
2023-05-11T12:40:36.122Z,23.81
2023-05-11T12:43:05.339Z,22.34
2023-05-11T12:45:38.582Z,22.82
2023-05-11T12:48:11.219Z,23.17
2023-05-11T12:50:42.889Z,22.92
2023-05-11T12:53:15.929Z,22.03
2023-05-11T12:55:46.496Z,22.52
2023-05-11T12:58:18.704Z,27.57
2023-05-11T13:00:56.467Z,33.41
2023-05-11T13:03:27.425Z,33.49
2023-05-11T13:06:08.406Z,34.32
2023-05-11T13:08:38.964Z,34.64
2023-05-11T13:11:24.617Z,37.94
2023-05-11T13:14:00.077Z,31.41
2023-05-11T13:16:32.823Z,27.53
2023-05-11T13:19:02.791Z,27.15
2023-05-11T13:21:33.468Z,26.46
2023-05-11T13:24:06.299Z,25.73
2023-05-11T13:26:41.377Z,25.59
2023-05-11T13:29:11.394Z,25.76
2023-05-11T13:31:48.027Z,23.95
2023-05-11T13:34:17.840Z,23.97
2023-05-11T13:36:50.403Z,22.57
2023-05-11T13:39:21.107Z,22.67
2023-05-11T13:41:56.220Z,22.44
2023-05-11T13:44:26.105Z,22.63
2023-05-11T13:47:05.050Z,22.21
2023-05-11T13:49:37.253Z,22.29
2023-05-11T13:52:09.297Z,22.07
2023-05-11T13:54:38.536Z,23.06
2023-05-11T13:57:08.208Z,23.42
2023-05-11T13:59:37.477Z,23.64
2023-05-11T14:02:08.628Z,26.21
2023-05-11T14:04:40.141Z,26.76
2023-05-11T14:07:09.245Z,26.18
2023-05-11T14:09:40.699Z,24.49
2023-05-11T14:12:10.127Z,24.29
2023-05-11T14:14:39.994Z,23.91
2023-05-11T14:17:12.237Z,28.94
2023-05-11T14:19:41.582Z,32.68
2023-05-11T14:22:11.049Z,32.80
2023-05-11T14:24:40.464Z,33.29
2023-05-11T14:27:10.075Z,34.02
2023-05-11T14:29:41.167Z,32.63
2023-05-11T14:32:14.150Z,31.93
2023-05-11T14:34:43.510Z,32.98
2023-05-11T14:37:13.276Z,33.62
2023-05-11T14:39:45.426Z,33.30
2023-05-11T14:42:14.363Z,34.13
2023-05-11T14:44:46.361Z,34.82
2023-05-11T14:47:19.775Z,32.62
2023-05-11T14:49:48.829Z,27.51
2023-05-11T14:52:21.476Z,25.13
2023-05-11T14:55:00.169Z,24.75
2023-05-11T14:57:34.854Z,24.02
2023-05-11T15:00:08.734Z,23.78
2023-05-11T15:02:39.253Z,23.41
2023-05-11T15:05:09.621Z,22.94
2023-05-11T15:07:42.860Z,22.84
2023-05-11T15:10:12.523Z,22.54
2023-05-11T15:12:41.802Z,22.27
2023-05-11T15:15:12.055Z,21.97
2023-05-11T15:17:42.579Z,21.39
2023-05-11T15:20:12.516Z,21.19
2023-05-11T15:22:41.719Z,21.54
2023-05-11T15:25:11.153Z,21.56
2023-05-11T15:27:40.171Z,24.84
2023-05-11T15:30:10.223Z,29.61
2023-05-11T15:32:39.672Z,29.99
2023-05-11T15:35:11.048Z,30.55
2023-05-11T15:37:40.192Z,29.63
2023-05-11T15:40:10.581Z,24.75
2023-05-11T15:42:40.166Z,22.97
2023-05-11T15:45:10.149Z,22.40
2023-05-11T15:47:39.487Z,22.21
2023-05-11T15:50:13.132Z,21.05
2023-05-11T15:52:42.246Z,20.91
2023-05-11T15:55:11.713Z,20.82
2023-05-11T15:57:41.814Z,20.65
2023-05-11T16:00:12.718Z,20.18
2023-05-11T16:02:44.878Z,19.82
2023-05-11T16:05:15.779Z,19.58
2023-05-11T16:07:46.144Z,19.68
2023-05-11T16:10:27.881Z,19.34
2023-05-11T16:12:58.786Z,19.36
2023-05-11T16:15:46.607Z,19.32
2023-05-11T16:18:16.724Z,18.98
2023-05-11T16:20:47.626Z,19.13
2023-05-11T16:23:17.386Z,18.99
2023-05-11T16:25:47.775Z,18.70
2023-05-11T16:28:16.790Z,18.80
2023-05-11T16:30:46.369Z,19.12
2023-05-11T16:33:16.302Z,19.13
2023-05-11T16:35:47.051Z,19.24
2023-05-11T16:38:19.134Z,19.01
2023-05-11T16:40:49.631Z,18.78
2023-05-11T16:43:19.552Z,18.77
2023-05-11T16:46:09.978Z,18.28
2023-05-11T16:48:42.272Z,18.21
2023-05-11T16:51:12.956Z,17.92
2023-05-11T16:53:51.600Z,17.99
2023-05-11T16:56:20.952Z,17.96
2023-05-11T16:58:50.452Z,17.87
2023-05-11T17:01:19.833Z,17.91
2023-05-11T17:03:50.553Z,17.62
2023-05-11T17:06:24.070Z,17.42
2023-05-11T17:08:54.234Z,17.53
2023-05-11T17:11:24.544Z,17.42
2023-05-11T17:13:54.132Z,17.19
2023-05-11T17:16:31.312Z,16.92
2023-05-11T17:19:04.162Z,16.84
2023-05-11T17:21:35.428Z,17.03
2023-05-11T17:24:05.016Z,16.90
2023-05-11T17:26:43.849Z,16.94
2023-05-11T17:29:16.652Z,16.74
2023-05-11T17:31:49.208Z,16.60
2023-05-11T17:34:25.893Z,16.52
2023-05-11T17:37:01.627Z,16.60
2023-05-11T17:39:32.060Z,16.55
2023-05-11T17:42:02.279Z,16.36
2023-05-11T17:44:31.264Z,16.16
2023-05-11T17:47:03.391Z,16.17
2023-05-11T17:49:34.060Z,16.00
2023-05-11T17:52:06.043Z,15.83
2023-05-11T17:54:35.932Z,15.92
2023-05-11T17:57:06.439Z,15.91
2023-05-11T17:59:55.080Z,15.60
2023-05-11T18:02:34.659Z,15.52
2023-05-11T18:05:04.541Z,16.00
2023-05-11T18:07:36.791Z,15.39
2023-05-11T18:10:08.333Z,15.63
2023-05-11T18:12:37.910Z,15.72
2023-05-11T18:15:08.196Z,15.93
2023-05-11T18:17:37.642Z,16.01
2023-05-11T18:20:09.187Z,16.34
2023-05-11T18:22:39.954Z,16.48
2023-05-11T18:25:13.831Z,16.55
2023-05-11T18:27:43.842Z,16.51
2023-05-11T18:30:14.711Z,16.34
2023-05-11T18:32:43.963Z,16.43
2023-05-11T18:35:13.181Z,16.38
2023-05-11T18:37:43.873Z,16.48
2023-05-11T18:40:14.119Z,16.32
2023-05-11T18:42:43.710Z,16.41
2023-05-11T18:45:13.668Z,16.26
2023-05-11T18:47:44.566Z,16.33
2023-05-11T18:50:13.821Z,16.29
2023-05-11T18:52:48.196Z,16.28
2023-05-11T18:55:18.825Z,16.28
2023-05-11T18:57:50.507Z,16.20
2023-05-11T19:00:20.726Z,16.17
2023-05-11T19:02:50.245Z,16.06
2023-05-11T19:05:19.581Z,15.84
2023-05-11T19:07:50.655Z,15.79
2023-05-11T19:10:28.614Z,15.85
2023-05-11T19:13:06.478Z,15.69
2023-05-11T19:15:47.371Z,15.52
2023-05-11T19:18:17.332Z,15.44
2023-05-11T19:20:46.464Z,15.57
2023-05-11T19:23:20.365Z,15.54
2023-05-11T19:25:53.402Z,15.58
2023-05-11T19:28:23.509Z,15.36
2023-05-11T19:31:01.927Z,15.56
2023-05-11T19:33:43.191Z,15.53
2023-05-11T19:36:13.228Z,15.36
2023-05-11T19:38:44.416Z,15.30
2023-05-11T19:41:14.026Z,15.07
2023-05-11T19:43:50.901Z,15.29
2023-05-11T19:46:23.990Z,14.99
2023-05-11T19:48:54.990Z,14.88
2023-05-11T19:51:24.499Z,15.07
2023-05-11T19:54:01.909Z,15.06
2023-05-11T19:56:33.575Z,14.16
2023-05-11T19:59:13.753Z,14.59
2023-05-11T20:01:47.095Z,14.06
2023-05-11T20:04:21.863Z,14.98
2023-05-11T20:06:56.405Z,14.99
2023-05-11T20:09:30.767Z,14.92
2023-05-11T20:12:01.212Z,15.28
2023-05-11T20:14:31.789Z,15.02
2023-05-11T20:17:02.104Z,14.95
2023-05-11T20:19:31.431Z,14.79
2023-05-11T20:22:01.007Z,14.30
2023-05-11T20:24:32.099Z,14.57
2023-05-11T20:27:01.232Z,14.30
2023-05-11T20:29:30.664Z,14.38
2023-05-11T20:32:00.238Z,14.37
2023-05-11T20:34:29.340Z,14.28
2023-05-11T20:36:58.385Z,14.25
2023-05-11T20:39:28.710Z,14.19
2023-05-11T20:42:01.395Z,14.03
2023-05-11T20:44:30.393Z,13.97
2023-05-11T20:46:59.503Z,13.83
2023-05-11T20:49:38.236Z,13.72
2023-05-11T20:52:08.133Z,13.54
2023-05-11T20:54:37.490Z,12.99
2023-05-11T20:57:09.583Z,12.35
2023-05-11T21:02:12.032Z,12.12
2023-05-11T21:04:41.197Z,12.28
2023-05-11T21:07:10.368Z,12.36
2023-05-11T21:09:39.377Z,12.56
2023-05-11T21:12:10.268Z,12.51
2023-05-11T21:14:40.052Z,13.42
2023-05-11T21:17:09.146Z,13.62
2023-05-11T21:19:38.421Z,13.71
2023-05-11T21:22:07.297Z,13.82
2023-05-11T21:24:37.711Z,13.81
2023-05-11T21:27:06.972Z,13.52
2023-05-11T21:29:37.405Z,13.82
2023-05-11T21:32:07.281Z,13.84
2023-05-11T21:34:36.313Z,13.98
2023-05-11T21:37:05.547Z,13.89
2023-05-11T21:39:34.686Z,13.68
2023-05-11T21:42:04.285Z,14.09
2023-05-11T21:44:33.503Z,14.05
2023-05-11T21:47:05.435Z,14.23
2023-05-11T21:49:36.415Z,14.07
2023-05-11T21:52:07.143Z,13.96
2023-05-11T21:54:35.991Z,14.10
2023-05-11T21:57:05.742Z,14.13
2023-05-11T21:59:34.902Z,14.27
2023-05-11T22:02:05.686Z,14.15
2023-05-11T22:04:34.662Z,13.99
2023-05-11T22:07:04.141Z,13.95
2023-05-11T22:09:33.118Z,13.86
2023-05-11T22:12:03.158Z,13.83
2023-05-11T22:14:32.064Z,13.75
2023-05-11T22:17:01.430Z,13.61
2023-05-11T22:19:32.214Z,13.58
2023-05-11T22:22:01.271Z,13.44
2023-05-11T22:24:30.260Z,13.64
2023-05-11T22:26:59.464Z,13.43
2023-05-11T22:29:28.570Z,13.54
2023-05-11T22:31:59.270Z,13.52
2023-05-11T22:34:29.462Z,13.33
2023-05-11T22:37:01.311Z,13.30
2023-05-11T22:39:30.580Z,13.26
2023-05-11T22:41:59.935Z,13.21
2023-05-11T22:44:28.905Z,13.24
2023-05-11T22:46:59.379Z,13.19
2023-05-11T22:49:28.897Z,13.16
2023-05-11T22:51:59.753Z,13.15
2023-05-11T22:54:28.978Z,12.25
2023-05-11T22:56:58.297Z,12.80
2023-05-11T22:59:27.568Z,12.89
2023-05-11T23:02:01.774Z,12.83
2023-05-11T23:04:32.486Z,12.86
2023-05-11T23:07:04.317Z,12.84
2023-05-11T23:09:33.472Z,12.67
2023-05-11T23:12:03.639Z,12.70
2023-05-11T23:14:32.669Z,12.73
2023-05-11T23:17:01.658Z,11.65
2023-05-11T23:19:30.772Z,12.22
2023-05-11T23:21:59.864Z,12.31
2023-05-11T23:24:31.709Z,12.42
2023-05-11T23:27:00.988Z,12.41
2023-05-11T23:29:29.967Z,12.35
2023-05-11T23:32:00.151Z,12.73
2023-05-11T23:34:29.247Z,12.53
2023-05-11T23:36:58.265Z,11.82
2023-05-11T23:39:27.572Z,11.98
2023-05-11T23:42:00.767Z,11.96
2023-05-11T23:44:29.989Z,12.19
2023-05-11T23:46:59.349Z,12.19
2023-05-11T23:49:28.228Z,12.31
2023-05-11T23:51:57.417Z,12.37
2023-05-11T23:54:26.585Z,12.20
2023-05-11T23:56:57.005Z,12.41
2023-05-11T23:59:26.565Z,12.39
